createdAt,value
2019-05-03T00:00:48.901Z,9.89
2019-05-03T00:01:48.831Z,9.96
2019-05-03T00:03:42.505Z,9.99
2019-05-03T00:04:42.245Z,9.92
2019-05-03T00:06:34.547Z,9.98
2019-05-03T00:07:34.341Z,9.95
2019-05-03T00:09:27.179Z,9.96
2019-05-03T00:10:27.041Z,10.02
2019-05-03T00:12:21.985Z,9.98
2019-05-03T00:13:21.755Z,9.92
2019-05-03T00:15:12.614Z,9.85
2019-05-03T00:16:12.550Z,9.86
2019-05-03T00:18:05.317Z,9.88
2019-05-03T00:19:05.246Z,9.78
2019-05-03T00:20:58.095Z,9.75
2019-05-03T00:21:58.001Z,9.80
2019-05-03T00:23:52.296Z,9.85
2019-05-03T00:25:04.563Z,9.83
2019-05-03T00:26:43.570Z,9.86
2019-05-03T00:27:43.511Z,9.89
2019-05-03T00:29:36.356Z,9.80
2019-05-03T00:30:36.256Z,9.80
2019-05-03T00:32:29.061Z,9.89
2019-05-03T00:33:28.976Z,9.88
2019-05-03T00:35:22.593Z,9.92
2019-05-03T00:36:22.400Z,9.89
2019-05-03T00:38:14.538Z,9.92
2019-05-03T00:39:14.404Z,9.86
2019-05-03T00:41:07.209Z,9.88
2019-05-03T00:42:07.159Z,9.83
2019-05-03T00:44:02.087Z,9.81
2019-05-03T00:45:02.128Z,9.83
2019-05-03T00:46:52.610Z,9.86
2019-05-03T00:47:52.772Z,9.78
2019-05-03T00:49:45.467Z,9.65
2019-05-03T00:50:45.283Z,9.77
2019-05-03T00:52:38.079Z,9.68
2019-05-03T00:53:37.989Z,9.81
2019-05-03T00:55:32.628Z,9.63
2019-05-03T00:56:32.134Z,9.68
2019-05-03T00:58:23.531Z,9.71
2019-05-03T00:59:23.447Z,9.74
2019-05-03T01:01:16.225Z,9.63
2019-05-03T01:02:16.144Z,9.63
2019-05-03T01:04:08.951Z,9.67
2019-05-03T01:05:08.899Z,9.60
2019-05-03T01:07:02.258Z,9.62
2019-05-03T01:08:01.949Z,9.60
2019-05-03T01:09:54.393Z,9.67
2019-05-03T01:10:54.352Z,9.52
2019-05-03T01:12:47.183Z,9.52
2019-05-03T01:13:47.032Z,9.50
2019-05-03T01:15:40.033Z,9.52
2019-05-03T01:16:39.761Z,9.49
2019-05-03T01:18:32.587Z,9.52
2019-05-03T01:19:32.626Z,9.44
2019-05-03T01:21:25.253Z,9.41
2019-05-03T01:22:25.188Z,9.40
2019-05-03T01:24:18.327Z,9.42
2019-05-03T01:25:29.173Z,9.42
2019-05-03T01:27:12.341Z,9.45
2019-05-03T01:28:12.252Z,9.45
2019-05-03T01:30:03.458Z,9.42
2019-05-03T01:31:03.350Z,9.37
2019-05-03T01:32:56.162Z,9.41
2019-05-03T01:33:56.082Z,9.31
2019-05-03T01:35:48.914Z,9.34
2019-05-03T01:36:48.840Z,9.31
2019-05-03T01:38:42.327Z,9.34
2019-05-03T01:39:42.110Z,9.24
2019-05-03T01:41:34.418Z,9.17
2019-05-03T01:42:34.288Z,9.16
2019-05-03T01:44:27.149Z,9.19
2019-05-03T01:45:27.059Z,9.16
2019-05-03T01:47:21.842Z,9.19
2019-05-03T01:48:21.597Z,9.19
2019-05-03T01:50:12.705Z,9.23
2019-05-03T01:51:12.452Z,9.17
2019-05-03T01:53:05.249Z,9.16
2019-05-03T01:54:05.157Z,9.01
2019-05-03T01:55:54.416Z,9.03
2019-05-03T01:56:58.905Z,9.00
2019-05-03T01:58:47.095Z,9.01
2019-05-03T01:59:47.033Z,9.10
2019-05-03T02:01:42.072Z,9.00
2019-05-03T02:02:41.847Z,8.93
2019-05-03T02:04:32.586Z,8.97
2019-05-03T02:05:32.452Z,8.98
2019-05-03T02:07:25.288Z,8.96
2019-05-03T02:08:25.268Z,9.00
2019-05-03T02:10:18.040Z,9.00
2019-05-03T02:11:17.934Z,8.98
2019-05-03T02:13:12.279Z,8.94
2019-05-03T02:14:12.373Z,8.91
2019-05-03T02:16:03.476Z,8.89
2019-05-03T02:17:03.357Z,8.91
2019-05-03T02:18:56.138Z,8.86
2019-05-03T02:19:56.042Z,8.85
2019-05-03T02:21:48.843Z,8.76
2019-05-03T02:22:48.760Z,8.78
2019-05-03T02:24:42.262Z,8.76
2019-05-03T02:25:41.995Z,8.76
2019-05-03T02:27:34.349Z,8.70
2019-05-03T02:28:34.295Z,8.71
2019-05-03T02:30:27.124Z,8.75
2019-05-03T02:31:27.028Z,8.61
2019-05-03T02:33:19.792Z,8.68
2019-05-03T02:34:19.717Z,8.58
2019-05-03T02:36:13.658Z,8.57
2019-05-03T02:37:13.846Z,8.57
2019-05-03T02:39:05.636Z,8.54
2019-05-03T02:40:05.153Z,8.47
2019-05-03T02:42:02.925Z,8.49
2019-05-03T02:42:57.920Z,8.50
2019-05-03T02:44:50.664Z,8.49
2019-05-03T02:45:50.566Z,8.49
2019-05-03T02:47:43.407Z,8.39
2019-05-03T02:48:45.688Z,8.42
2019-05-03T02:50:36.249Z,8.40
2019-05-03T02:51:36.202Z,8.40
2019-05-03T02:53:28.943Z,8.29
2019-05-03T02:54:28.823Z,8.32
2019-05-03T02:56:22.408Z,8.32
2019-05-03T02:57:21.533Z,8.18
2019-05-03T02:59:15.836Z,8.25
2019-05-03T03:00:16.243Z,8.25
2019-05-03T03:02:07.088Z,8.20
2019-05-03T03:03:06.943Z,8.17
2019-05-03T03:04:59.773Z,8.06
2019-05-03T03:05:59.709Z,8.07
2019-05-03T03:07:52.480Z,8.06
2019-05-03T03:08:52.369Z,8.03
2019-05-03T03:10:45.679Z,7.96
2019-05-03T03:11:45.765Z,8.03
2019-05-03T03:13:37.922Z,8.07
2019-05-03T03:14:37.867Z,8.04
2019-05-03T03:16:30.571Z,7.94
2019-05-03T03:17:30.528Z,7.95
2019-05-03T03:19:25.963Z,7.89
2019-05-03T03:20:25.409Z,7.89
2019-05-03T03:22:16.083Z,7.92
2019-05-03T03:23:18.025Z,7.84
2019-05-03T03:25:08.769Z,7.77
2019-05-03T03:26:08.703Z,7.81
2019-05-03T03:28:01.626Z,7.85
2019-05-03T03:29:01.412Z,7.79
2019-05-03T03:30:57.616Z,7.74
2019-05-03T03:31:58.170Z,7.71
2019-05-03T03:33:47.739Z,7.69
2019-05-03T03:34:54.564Z,7.69
2019-05-03T03:36:57.943Z,7.54
2019-05-03T03:37:39.557Z,7.54
2019-05-03T03:39:32.277Z,7.44
2019-05-03T03:40:32.193Z,7.39
2019-05-03T03:42:25.265Z,7.33
2019-05-03T03:43:25.952Z,7.30
2019-05-03T03:45:17.670Z,7.34
2019-05-03T03:46:17.598Z,7.36
2019-05-03T03:48:10.419Z,7.29
2019-05-03T03:49:10.385Z,7.27
2019-05-03T03:51:05.046Z,7.33
2019-05-03T03:52:05.840Z,7.36
2019-05-03T03:53:55.873Z,7.30
2019-05-03T03:54:55.745Z,7.34
2019-05-03T03:56:59.270Z,7.34
2019-05-03T03:57:48.437Z,7.24
2019-05-03T03:59:41.225Z,7.30
2019-05-03T04:00:41.138Z,7.30
2019-05-03T04:02:35.353Z,7.33
2019-05-03T04:03:36.140Z,7.36
2019-05-03T04:05:26.661Z,7.32
2019-05-03T04:06:27.013Z,7.30
2019-05-03T04:08:19.366Z,7.47
2019-05-03T04:09:19.292Z,7.44
2019-05-03T04:11:12.103Z,7.51
2019-05-03T04:12:12.026Z,7.37
2019-05-03T04:14:05.437Z,7.39
2019-05-03T04:15:05.698Z,7.44
2019-05-03T04:16:57.611Z,7.45
2019-05-03T04:17:57.485Z,7.55
2019-05-03T04:19:50.273Z,7.55
2019-05-03T04:20:50.204Z,7.54
2019-05-03T04:22:45.282Z,7.55
2019-05-03T04:23:42.860Z,7.48
2019-05-03T04:25:35.849Z,7.67
2019-05-03T04:26:35.861Z,7.69
2019-05-03T04:28:28.453Z,7.57
2019-05-03T04:29:28.301Z,7.70
2019-05-03T04:31:21.164Z,7.60
2019-05-03T04:32:24.856Z,7.62
2019-05-03T04:34:16.223Z,7.63
2019-05-03T04:35:16.324Z,7.63
2019-05-03T04:37:06.483Z,7.57
2019-05-03T04:38:06.382Z,7.66
2019-05-03T04:39:59.204Z,7.60
2019-05-03T04:40:59.095Z,7.62
2019-05-03T04:42:51.945Z,7.63
2019-05-03T04:43:51.886Z,7.66
2019-05-03T04:45:45.597Z,7.70
2019-05-03T04:46:46.513Z,7.67
2019-05-03T04:48:37.347Z,7.71
2019-05-03T04:49:37.271Z,7.74
2019-05-03T04:51:30.065Z,7.71
2019-05-03T04:52:30.030Z,7.71
2019-05-03T04:54:25.042Z,7.84
2019-05-03T04:55:22.679Z,7.89
2019-05-03T04:57:17.578Z,7.95
2019-05-03T04:58:16.157Z,7.94
2019-05-03T05:00:11.257Z,7.89
2019-05-03T05:01:08.045Z,7.86
2019-05-03T05:03:00.843Z,7.88
2019-05-03T05:04:00.741Z,7.88
2019-05-03T05:05:55.494Z,7.89
2019-05-03T05:06:55.499Z,7.89
2019-05-03T05:08:46.239Z,7.94
2019-05-03T05:09:46.181Z,8.00
2019-05-03T05:11:38.957Z,7.95
2019-05-03T05:12:38.965Z,7.99
2019-05-03T05:14:31.648Z,8.06
2019-05-03T05:15:31.575Z,8.03
2019-05-03T05:17:26.303Z,8.20
2019-05-03T05:18:26.365Z,8.28
2019-05-03T05:20:17.040Z,8.54
2019-05-03T05:21:16.968Z,8.65
2019-05-03T05:23:09.751Z,8.85
2019-05-03T05:24:09.655Z,9.00
2019-05-03T05:26:02.520Z,9.73
2019-05-03T05:27:02.344Z,10.28
2019-05-03T05:28:55.101Z,11.93
2019-05-03T05:29:55.429Z,12.62
2019-05-03T05:31:47.824Z,13.32
2019-05-03T05:32:47.715Z,13.36
2019-05-03T05:34:41.058Z,13.86
2019-05-03T05:35:40.467Z,14.34
2019-05-03T05:37:35.118Z,14.48
2019-05-03T05:38:34.669Z,14.72
2019-05-03T05:40:25.976Z,14.60
2019-05-03T05:41:25.876Z,15.05
2019-05-03T05:43:18.668Z,15.40
2019-05-03T05:44:18.595Z,15.66
2019-05-03T05:46:11.386Z,15.46
2019-05-03T05:47:11.299Z,15.49
2019-05-03T05:49:04.346Z,15.43
2019-05-03T05:50:04.971Z,16.04
2019-05-03T05:51:56.915Z,16.45
2019-05-03T05:52:56.812Z,16.54
2019-05-03T05:54:49.566Z,17.14
2019-05-03T05:55:49.539Z,17.10
2019-05-03T05:57:42.302Z,16.82
2019-05-03T05:58:42.228Z,16.90
2019-05-03T06:00:35.927Z,16.80
2019-05-03T06:01:35.306Z,16.92
2019-05-03T06:03:27.749Z,17.42
2019-05-03T06:04:27.661Z,16.81
2019-05-03T06:06:20.467Z,16.44
2019-05-03T06:07:20.374Z,16.63
2019-05-03T06:09:15.282Z,16.96
2019-05-03T06:10:14.693Z,17.60
2019-05-03T06:12:05.928Z,16.60
2019-05-03T06:13:05.848Z,17.14
2019-05-03T06:14:58.662Z,16.67
2019-05-03T06:15:58.591Z,16.22
2019-05-03T06:17:51.505Z,16.32
2019-05-03T06:18:51.325Z,16.27
2019-05-03T06:20:45.170Z,17.10
2019-05-03T06:21:44.827Z,17.54
2019-05-03T06:23:36.824Z,17.58
2019-05-03T06:24:36.749Z,17.81
2019-05-03T06:26:29.591Z,18.07
2019-05-03T06:27:29.462Z,17.35
2019-05-03T06:29:22.308Z,17.12
2019-05-03T06:30:22.225Z,16.87
2019-05-03T06:32:15.381Z,14.60
2019-05-03T06:33:14.936Z,14.87
2019-05-03T06:35:07.742Z,13.36
2019-05-03T06:36:07.707Z,14.64
2019-05-03T06:38:00.550Z,16.37
2019-05-03T06:39:00.407Z,15.34
2019-05-03T06:40:54.439Z,14.72
2019-05-03T06:41:54.689Z,15.66
2019-05-03T06:43:48.680Z,14.27
2019-05-03T06:44:45.843Z,14.44
2019-05-03T06:46:38.627Z,14.34
2019-05-03T06:47:40.425Z,13.91
2019-05-03T06:49:31.351Z,14.98
2019-05-03T06:50:31.313Z,15.60
2019-05-03T06:52:25.470Z,15.66
2019-05-03T06:53:25.406Z,15.81
2019-05-03T06:55:16.989Z,16.08
2019-05-03T06:56:19.280Z,17.00
2019-05-03T06:58:09.578Z,17.91
2019-05-03T06:59:09.535Z,16.95
2019-05-03T07:01:04.525Z,17.43
2019-05-03T07:02:02.346Z,16.70
2019-05-03T07:03:55.188Z,14.69
2019-05-03T07:04:56.202Z,14.46
2019-05-03T07:06:47.823Z,14.79
2019-05-03T07:07:47.764Z,14.53
2019-05-03T07:09:40.562Z,14.63
2019-05-03T07:10:40.528Z,15.05
2019-05-03T07:12:35.315Z,14.06
2019-05-03T07:13:34.534Z,14.06
2019-05-03T07:15:26.013Z,14.48
2019-05-03T07:16:25.916Z,15.46
2019-05-03T07:18:18.726Z,16.10
2019-05-03T07:19:18.692Z,16.91
2019-05-03T07:21:11.453Z,17.21
2019-05-03T07:22:11.407Z,17.22
2019-05-03T07:24:05.407Z,16.23
2019-05-03T07:25:04.707Z,15.76
2019-05-03T07:26:59.090Z,16.23
2019-05-03T07:27:56.838Z,16.57
2019-05-03T07:29:49.621Z,17.10
2019-05-03T07:30:49.547Z,17.55
2019-05-03T07:32:42.352Z,16.27
2019-05-03T07:33:42.284Z,15.43
2019-05-03T07:35:35.403Z,14.19
2019-05-03T07:36:35.593Z,14.64
2019-05-03T07:38:27.799Z,14.57
2019-05-03T07:39:27.915Z,14.86
2019-05-03T07:41:20.539Z,14.17
2019-05-03T07:42:20.407Z,13.96
2019-05-03T07:44:15.051Z,14.83
2019-05-03T07:45:14.857Z,15.56
2019-05-03T07:47:05.974Z,15.30
2019-05-03T07:48:05.979Z,15.34
2019-05-03T07:49:58.814Z,16.42
2019-05-03T07:50:58.676Z,16.54
2019-05-03T07:52:51.444Z,16.69
2019-05-03T07:53:51.382Z,16.96
2019-05-03T07:55:45.667Z,17.20
2019-05-03T07:56:44.578Z,17.27
2019-05-03T07:58:36.927Z,17.10
2019-05-03T07:59:36.872Z,17.09
2019-05-03T08:01:29.689Z,17.55
2019-05-03T08:02:29.646Z,17.00
2019-05-03T08:04:22.398Z,16.08
2019-05-03T08:05:22.313Z,15.67
2019-05-03T08:07:22.312Z,15.88
2019-05-03T08:08:15.171Z,16.50
2019-05-03T08:10:07.955Z,17.51
2019-05-03T08:11:07.792Z,17.25
2019-05-03T08:13:00.565Z,18.23
2019-05-03T08:14:00.480Z,18.20
2019-05-03T08:15:55.658Z,18.14
2019-05-03T08:16:54.743Z,18.32
2019-05-03T08:18:46.047Z,18.72
2019-05-03T08:19:45.948Z,18.51
2019-05-03T08:21:39.146Z,17.66
2019-05-03T08:22:38.679Z,17.79
2019-05-03T08:24:31.592Z,17.74
2019-05-03T08:25:31.470Z,17.94
2019-05-03T08:27:25.127Z,18.83
2019-05-03T08:28:24.631Z,18.36
2019-05-03T08:30:17.029Z,17.22
2019-05-03T08:31:16.990Z,16.50
2019-05-03T08:33:09.735Z,15.53
2019-05-03T08:34:09.681Z,15.62
2019-05-03T08:36:04.742Z,15.92
2019-05-03T08:37:02.501Z,16.41
2019-05-03T08:38:56.420Z,17.07
2019-05-03T08:39:55.279Z,17.43
2019-05-03T08:41:48.062Z,17.21
2019-05-03T08:42:47.938Z,17.10
2019-05-03T08:44:40.760Z,16.51
2019-05-03T08:45:40.709Z,16.41
2019-05-03T08:47:34.465Z,18.10
2019-05-03T08:48:35.477Z,18.64
2019-05-03T08:50:26.252Z,19.80
2019-05-03T08:51:26.225Z,20.19
2019-05-03T08:53:18.998Z,19.53
2019-05-03T08:54:18.908Z,19.13
2019-05-03T08:56:11.702Z,17.36
2019-05-03T08:57:11.647Z,17.79
2019-05-03T08:59:04.776Z,16.72
2019-05-03T09:00:05.265Z,17.12
2019-05-03T09:01:57.155Z,16.92
2019-05-03T09:02:57.064Z,16.47
2019-05-03T09:04:49.873Z,16.50
2019-05-03T09:05:49.809Z,17.38
2019-05-03T09:07:44.751Z,18.35
2019-05-03T09:08:42.532Z,19.15
2019-05-03T09:10:35.416Z,18.38
2019-05-03T09:11:36.844Z,18.41
2019-05-03T09:13:28.105Z,19.62
2019-05-03T09:14:38.772Z,20.16
2019-05-03T09:16:21.069Z,21.22
2019-05-03T09:17:20.892Z,21.31
2019-05-03T09:19:14.767Z,20.88
2019-05-03T09:20:15.534Z,19.90
2019-05-03T09:22:06.552Z,18.56
2019-05-03T09:23:06.497Z,18.01
2019-05-03T09:24:59.586Z,16.91
2019-05-03T09:25:59.473Z,16.18
2019-05-03T09:27:52.397Z,15.23
2019-05-03T09:28:52.158Z,15.18
2019-05-03T09:30:45.021Z,15.03
2019-05-03T09:31:44.956Z,14.98
2019-05-03T09:33:37.840Z,14.78
2019-05-03T09:34:37.795Z,14.66
2019-05-03T09:36:30.657Z,14.56
2019-05-03T09:37:30.560Z,15.43
2019-05-03T09:39:24.508Z,17.20
2019-05-03T09:40:24.571Z,17.71
2019-05-03T09:42:16.215Z,17.22
2019-05-03T09:43:16.342Z,17.81
2019-05-03T09:45:08.984Z,17.80
2019-05-03T09:46:08.923Z,18.32
2019-05-03T09:48:01.703Z,18.94
2019-05-03T09:49:12.551Z,19.78
2019-05-03T09:50:55.577Z,18.76
2019-05-03T09:51:54.893Z,19.25
2019-05-03T09:53:47.278Z,18.83
2019-05-03T09:54:47.143Z,18.64
2019-05-03T09:56:53.745Z,18.41
2019-05-03T09:57:39.882Z,18.65
2019-05-03T09:59:34.875Z,19.58
2019-05-03T10:00:32.680Z,20.01
2019-05-03T10:02:25.558Z,20.42
2019-05-03T10:03:25.463Z,20.51
2019-05-03T10:05:18.253Z,19.68
2019-05-03T10:06:18.188Z,19.02
2019-05-03T10:08:11.361Z,18.96
2019-05-03T10:09:11.066Z,19.39
2019-05-03T10:11:05.568Z,19.39
2019-05-03T10:12:05.509Z,18.97
2019-05-03T10:13:56.598Z,18.79
2019-05-03T10:14:56.469Z,18.05
2019-05-03T10:16:49.398Z,17.05
2019-05-03T10:17:49.327Z,16.81
2019-05-03T10:19:42.385Z,16.08
2019-05-03T10:20:42.112Z,15.70
2019-05-03T10:22:34.972Z,15.56
2019-05-03T10:23:35.843Z,15.96
2019-05-03T10:25:27.586Z,16.47
2019-05-03T10:26:27.542Z,16.62
2019-05-03T10:28:20.489Z,17.68
2019-05-03T10:29:20.383Z,18.47
2019-05-03T10:31:13.206Z,18.93
2019-05-03T10:32:15.026Z,19.07
2019-05-03T10:34:06.052Z,19.16
2019-05-03T10:35:05.911Z,19.05
2019-05-03T10:36:59.001Z,18.97
2019-05-03T10:37:58.623Z,18.82
2019-05-03T10:39:51.422Z,18.02
2019-05-03T10:40:51.344Z,17.57
2019-05-03T10:42:44.569Z,16.77
2019-05-03T10:43:45.114Z,16.87
2019-05-03T10:45:36.949Z,16.91
2019-05-03T10:46:36.984Z,16.77
2019-05-03T10:48:29.728Z,16.29
2019-05-03T10:49:29.656Z,16.10
2019-05-03T10:51:24.792Z,15.56
2019-05-03T10:52:22.865Z,15.31
2019-05-03T10:54:15.304Z,14.87
2019-05-03T10:55:15.957Z,14.78
2019-05-03T10:57:07.999Z,14.66
2019-05-03T10:58:07.890Z,14.78
2019-05-03T11:00:00.691Z,15.22
2019-05-03T11:01:00.608Z,15.35
2019-05-03T11:02:55.076Z,15.33
2019-05-03T11:03:54.547Z,15.30
2019-05-03T11:05:46.180Z,15.04
2019-05-03T11:06:46.185Z,14.98
2019-05-03T11:08:38.939Z,14.80
2019-05-03T11:09:48.700Z,14.75
2019-05-03T11:11:31.730Z,14.71
2019-05-03T11:12:31.583Z,14.86
2019-05-03T11:14:25.368Z,15.01
2019-05-03T11:15:25.909Z,15.35
2019-05-03T11:17:17.043Z,15.48
2019-05-03T11:18:17.014Z,15.66
2019-05-03T11:20:09.808Z,15.80
2019-05-03T11:21:09.725Z,15.77
2019-05-03T11:23:02.486Z,15.35
2019-05-03T11:24:02.447Z,15.46
2019-05-03T11:25:55.530Z,15.40
2019-05-03T11:26:55.850Z,15.07
2019-05-03T11:28:47.916Z,14.72
2019-05-03T11:29:47.844Z,14.49
2019-05-03T11:31:40.685Z,14.21
2019-05-03T11:32:40.599Z,14.29
2019-05-03T11:34:35.329Z,14.11
2019-05-03T11:35:35.065Z,14.12
2019-05-03T11:37:26.570Z,13.84
2019-05-03T11:38:26.132Z,13.79
2019-05-03T11:40:19.073Z,13.71
2019-05-03T11:41:29.583Z,13.62
2019-05-03T11:43:11.649Z,13.86
2019-05-03T11:44:11.601Z,14.02
2019-05-03T11:46:04.789Z,13.86
2019-05-03T11:47:05.819Z,13.99
2019-05-03T11:48:57.505Z,14.16
2019-05-03T11:49:57.424Z,14.13
2019-05-03T11:51:50.233Z,14.29
2019-05-03T11:52:50.187Z,14.42
2019-05-03T11:54:45.078Z,14.52
2019-05-03T11:55:46.108Z,14.49
2019-05-03T11:57:35.956Z,14.54
2019-05-03T11:58:35.726Z,14.42
2019-05-03T12:00:28.494Z,14.35
2019-05-03T12:01:28.461Z,14.49
2019-05-03T12:03:21.331Z,14.66
2019-05-03T12:04:21.176Z,14.72
2019-05-03T12:06:15.676Z,14.97
2019-05-03T12:07:15.321Z,14.86
2019-05-03T12:09:06.966Z,15.04
2019-05-03T12:10:16.459Z,15.00
2019-05-03T12:11:59.683Z,14.87
2019-05-03T12:12:59.624Z,14.97
2019-05-03T12:14:52.656Z,15.03
2019-05-03T12:15:52.547Z,15.04
2019-05-03T12:17:54.147Z,15.40
2019-05-03T12:18:52.922Z,15.66
2019-05-03T12:20:39.530Z,15.84
2019-05-03T12:21:39.178Z,15.93
2019-05-03T12:23:32.184Z,15.92
2019-05-03T12:24:31.369Z,15.64
2019-05-03T12:26:27.127Z,15.60
2019-05-03T12:27:24.406Z,15.46
2019-05-03T12:29:16.427Z,15.37
2019-05-03T12:30:16.331Z,15.31
2019-05-03T12:32:09.087Z,15.31
2019-05-03T12:33:09.034Z,15.25
2019-05-03T12:35:01.839Z,15.30
2019-05-03T12:36:01.778Z,15.16
2019-05-03T12:37:55.601Z,15.15
2019-05-03T12:38:54.898Z,15.16
2019-05-03T12:40:47.323Z,15.34
2019-05-03T12:41:48.213Z,15.34
2019-05-03T12:43:40.097Z,15.19
2019-05-03T12:44:40.018Z,14.95
2019-05-03T12:46:32.777Z,14.45
2019-05-03T12:47:34.697Z,14.19
2019-05-03T12:49:25.494Z,13.98
2019-05-03T12:50:25.423Z,14.08
2019-05-03T12:52:18.835Z,14.06
2019-05-03T12:53:18.187Z,14.13
2019-05-03T12:55:11.095Z,13.96
2019-05-03T12:56:13.454Z,13.81
2019-05-03T12:58:05.903Z,13.93
2019-05-03T12:59:05.745Z,13.81
2019-05-03T13:00:56.588Z,13.62
2019-05-03T13:01:56.491Z,13.48
2019-05-03T13:03:49.321Z,13.36
2019-05-03T13:04:51.978Z,13.24
2019-05-03T13:06:42.158Z,12.99
2019-05-03T13:07:42.001Z,12.91
2019-05-03T13:09:35.766Z,13.28
2019-05-03T13:10:34.765Z,13.27
2019-05-03T13:12:27.722Z,13.68
2019-05-03T13:13:27.421Z,13.79
2019-05-03T13:15:20.379Z,14.23
2019-05-03T13:16:20.242Z,14.35
2019-05-03T13:18:15.553Z,14.52
2019-05-03T13:19:15.090Z,14.42
2019-05-03T13:21:06.307Z,14.44
2019-05-03T13:22:05.876Z,14.53
2019-05-03T13:23:58.679Z,14.48
2019-05-03T13:24:58.608Z,14.36
2019-05-03T13:26:51.382Z,14.12
2019-05-03T13:27:51.323Z,14.13
2019-05-03T13:29:45.347Z,14.04
2019-05-03T13:30:45.321Z,14.04
2019-05-03T13:32:36.860Z,13.86
2019-05-03T13:33:36.787Z,13.83
2019-05-03T13:35:29.577Z,13.72
2019-05-03T13:36:29.499Z,13.57
2019-05-03T13:38:22.295Z,13.43
2019-05-03T13:39:22.224Z,13.43
2019-05-03T13:41:15.044Z,13.27
2019-05-03T13:42:14.966Z,13.17
2019-05-03T13:44:07.752Z,12.89
2019-05-03T13:45:07.652Z,12.91
2019-05-03T13:47:00.502Z,12.79
2019-05-03T13:48:00.406Z,12.79
2019-05-03T13:49:55.133Z,12.76
2019-05-03T13:50:55.033Z,12.40
2019-05-03T13:52:45.933Z,12.33
2019-05-03T13:53:45.921Z,12.38
2019-05-03T13:55:38.667Z,12.38
2019-05-03T13:56:38.553Z,12.38
2019-05-03T13:58:31.344Z,12.44
2019-05-03T13:59:31.261Z,12.46
2019-05-03T14:01:25.216Z,12.58
2019-05-03T14:02:24.065Z,12.74
2019-05-03T14:04:16.842Z,12.98
2019-05-03T14:05:16.857Z,13.07
2019-05-03T14:07:09.596Z,13.44
2019-05-03T14:08:09.480Z,13.65
2019-05-03T14:10:02.263Z,13.96
2019-05-03T14:11:02.186Z,14.01
2019-05-03T14:12:54.975Z,14.05
2019-05-03T14:13:55.301Z,14.04
2019-05-03T14:15:47.746Z,13.98
2019-05-03T14:16:47.738Z,13.96
2019-05-03T14:18:41.436Z,13.98
2019-05-03T14:19:40.494Z,13.87
2019-05-03T14:21:34.571Z,13.62
2019-05-03T14:22:33.223Z,13.55
2019-05-03T14:24:25.963Z,13.13
2019-05-03T14:25:25.916Z,12.99
2019-05-03T14:27:18.668Z,12.94
2019-05-03T14:28:18.597Z,12.96
2019-05-03T14:30:11.401Z,13.01
2019-05-03T14:31:11.337Z,13.04
2019-05-03T14:33:05.099Z,12.87
2019-05-03T14:34:06.019Z,12.79
2019-05-03T14:35:56.821Z,12.59
2019-05-03T14:36:56.751Z,12.52
2019-05-03T14:38:49.588Z,12.51
2019-05-03T14:39:49.561Z,12.38
2019-05-03T14:41:42.265Z,12.49
2019-05-03T14:42:42.202Z,12.54
2019-05-03T14:44:35.719Z,12.44
2019-05-03T14:45:35.114Z,12.46
2019-05-03T14:47:27.831Z,12.22
2019-05-03T14:48:27.764Z,12.29
2019-05-03T14:50:20.569Z,12.29
2019-05-03T14:51:20.500Z,12.30
2019-05-03T14:53:14.762Z,12.40
2019-05-03T14:54:14.522Z,12.34
2019-05-03T14:56:07.783Z,12.44
2019-05-03T14:57:05.917Z,12.40
2019-05-03T14:58:58.738Z,12.55
2019-05-03T14:59:58.643Z,12.59
2019-05-03T15:01:51.493Z,12.46
2019-05-03T15:02:51.390Z,12.37
2019-05-03T15:04:44.193Z,12.36
2019-05-03T15:05:44.124Z,12.33
2019-05-03T15:07:36.937Z,12.26
2019-05-03T15:08:36.824Z,12.19
2019-05-03T15:10:29.605Z,12.25
2019-05-03T15:11:29.527Z,12.15
2019-05-03T15:13:22.370Z,12.13
2019-05-03T15:14:22.296Z,12.05
2019-05-03T15:16:15.055Z,12.11
2019-05-03T15:17:15.005Z,12.04
2019-05-03T15:19:07.809Z,12.03
2019-05-03T15:20:07.690Z,12.04
2019-05-03T15:22:00.465Z,11.98
2019-05-03T15:23:00.394Z,12.12
2019-05-03T15:24:54.590Z,12.07
2019-05-03T15:25:54.633Z,11.85
2019-05-03T15:27:48.525Z,11.88
2019-05-03T15:28:45.803Z,11.82
2019-05-03T15:30:38.610Z,11.88
2019-05-03T15:31:38.519Z,11.90
2019-05-03T15:33:31.296Z,12.00
2019-05-03T15:34:31.217Z,11.94
2019-05-03T15:36:24.063Z,12.03
2019-05-03T15:37:25.484Z,12.07
2019-05-03T15:39:16.731Z,11.90
2019-05-03T15:40:16.663Z,11.78
2019-05-03T15:42:09.458Z,11.81
2019-05-03T15:43:09.359Z,11.88
2019-05-03T15:45:02.187Z,11.90
2019-05-03T15:46:02.239Z,11.88
2019-05-03T15:47:55.024Z,11.77
2019-05-03T15:48:55.229Z,11.87
2019-05-03T15:50:47.730Z,11.87
2019-05-03T15:51:47.566Z,11.84
2019-05-03T15:53:40.349Z,11.82
2019-05-03T15:54:40.301Z,11.84
2019-05-03T15:56:33.075Z,11.79
2019-05-03T15:57:33.008Z,11.74
2019-05-03T15:59:25.773Z,11.94
2019-05-03T16:00:25.715Z,11.93
2019-05-03T16:02:18.488Z,12.01
2019-05-03T16:03:18.396Z,12.01
2019-05-03T16:05:11.208Z,12.00
2019-05-03T16:06:11.106Z,12.00
2019-05-03T16:08:04.635Z,11.96
2019-05-03T16:09:04.582Z,12.00
2019-05-03T16:10:56.620Z,12.03
2019-05-03T16:11:56.534Z,12.07
2019-05-03T16:13:49.326Z,12.21
2019-05-03T16:14:49.282Z,12.30
2019-05-03T16:16:42.420Z,12.18
2019-05-03T16:17:42.340Z,12.29
2019-05-03T16:19:35.470Z,12.30
2019-05-03T16:20:39.179Z,12.36
2019-05-03T16:22:27.844Z,12.34
2019-05-03T16:23:27.778Z,12.23
2019-05-03T16:25:20.577Z,12.21
2019-05-03T16:26:20.471Z,12.18
2019-05-03T16:28:15.157Z,12.11
2019-05-03T16:29:14.971Z,11.98
2019-05-03T16:31:05.969Z,12.07
2019-05-03T16:32:05.891Z,12.01
2019-05-03T16:33:58.640Z,12.00
2019-05-03T16:34:58.587Z,12.04
2019-05-03T16:36:51.364Z,11.98
2019-05-03T16:37:51.273Z,12.04
2019-05-03T16:39:45.425Z,12.05
2019-05-03T16:40:45.164Z,12.03
2019-05-03T16:42:36.771Z,11.96
2019-05-03T16:43:36.695Z,12.03
2019-05-03T16:45:29.493Z,11.98
2019-05-03T16:46:29.408Z,11.93
2019-05-03T16:48:22.881Z,11.98
2019-05-03T16:49:22.123Z,11.90
2019-05-03T16:51:17.165Z,11.93
2019-05-03T16:52:17.379Z,11.90
2019-05-03T16:54:07.676Z,11.93
2019-05-03T16:55:07.642Z,11.90
2019-05-03T16:57:00.409Z,11.87
2019-05-03T16:58:00.332Z,11.84
2019-05-03T16:59:55.027Z,11.94
2019-05-03T17:00:55.168Z,11.94
2019-05-03T17:02:46.140Z,11.97
2019-05-03T17:03:46.083Z,11.98
2019-05-03T17:05:38.842Z,11.93
2019-05-03T17:06:39.363Z,11.82
2019-05-03T17:08:31.644Z,11.81
2019-05-03T17:09:31.478Z,11.79
2019-05-03T17:11:24.300Z,11.70
2019-05-03T17:12:25.663Z,11.69
2019-05-03T17:14:17.047Z,11.56
2019-05-03T17:15:16.976Z,11.48
2019-05-03T17:17:09.771Z,11.33
2019-05-03T17:18:09.779Z,11.26
2019-05-03T17:20:02.510Z,11.24
2019-05-03T17:21:02.422Z,11.24
2019-05-03T17:22:55.565Z,11.30
2019-05-03T17:23:55.096Z,11.23
2019-05-03T17:25:47.930Z,11.13
2019-05-03T17:26:47.832Z,11.19
2019-05-03T17:28:41.088Z,11.20
2019-05-03T17:29:40.956Z,11.20
2019-05-03T17:31:35.205Z,11.19
2019-05-03T17:32:35.115Z,11.19
2019-05-03T17:34:26.575Z,11.17
2019-05-03T17:35:26.448Z,11.20
2019-05-03T17:37:19.712Z,11.33
2019-05-03T17:38:19.413Z,11.30
2019-05-03T17:40:12.243Z,11.31
2019-05-03T17:41:12.178Z,11.38
2019-05-03T17:43:05.083Z,11.35
2019-05-03T17:44:05.014Z,11.27
2019-05-03T17:45:57.869Z,11.30
2019-05-03T17:46:57.612Z,11.23
2019-05-03T17:48:50.444Z,11.21
2019-05-03T17:49:50.385Z,11.19
2019-05-03T17:51:43.107Z,11.20
2019-05-03T17:52:45.018Z,11.19
2019-05-03T17:54:35.820Z,11.13
2019-05-03T17:55:35.741Z,11.17
2019-05-03T17:57:28.541Z,11.20
2019-05-03T17:58:28.462Z,11.23
2019-05-03T18:00:21.335Z,11.17
2019-05-03T18:01:22.259Z,11.17
2019-05-03T18:03:14.367Z,11.19
2019-05-03T18:04:15.761Z,11.12
2019-05-03T18:06:06.832Z,11.17
2019-05-03T18:07:06.764Z,11.17
2019-05-03T18:08:59.580Z,11.16
2019-05-03T18:09:59.493Z,11.21
2019-05-03T18:12:52.279Z,11.13
2019-05-03T18:14:45.134Z,11.12
2019-05-03T18:15:45.007Z,11.02
2019-05-03T18:17:37.862Z,11.02
2019-05-03T18:18:37.724Z,11.01
2019-05-03T18:20:30.577Z,11.03
2019-05-03T18:21:30.431Z,10.95
2019-05-03T18:23:24.617Z,11.01
2019-05-03T18:24:24.750Z,10.98
2019-05-03T18:26:16.063Z,10.99
2019-05-03T18:27:16.552Z,10.91
2019-05-03T18:29:08.791Z,10.98
2019-05-03T18:30:08.785Z,10.81
2019-05-03T18:32:01.530Z,10.84
2019-05-03T18:33:01.427Z,10.86
2019-05-03T18:34:54.687Z,10.86
2019-05-03T18:35:55.008Z,10.88
2019-05-03T18:37:47.189Z,10.84
2019-05-03T18:38:47.291Z,10.75
2019-05-03T18:40:39.840Z,10.93
2019-05-03T18:41:39.775Z,10.93
2019-05-03T18:43:34.497Z,10.90